Estación Meteorológica Peña el Pijo (Robertgarden) [ 11/20/18 01:11:02 CET ]

Fecha Hora Presion(HPa) Temp (°C) Humedad % Rocio (°C) Viento ( m/s) Direccion Lluvia 1Hora(mm) Lluvia 24H(mm) LLuvia Total(mm)
2018-Nov-17 01:01:51 1007.400 8.6 92 7.4     2.07 8.80 126.91
2018-Nov-17 02:10:04 1007.200 8.6 92 7.4     0.51 9.32 127.42
2018-Nov-17 03:02:09 1007.200 8.6 92 7.4     0.51 9.84 127.94
2018-Nov-17 04:01:54 1006.800 8.4 93 7.3       9.84 127.94
2018-Nov-17 05:02:21 1006.400 8.2 93 7.1       9.84 127.94
2018-Nov-17 06:03:24 1006.300 8.4 93 7.3       9.84 127.94
2018-Nov-17 07:01:41 1006.400 8.4 93 7.3       10.36 128.46
2018-Nov-17 08:01:47 1006.200 8.4 93 7.3       10.36 128.46
2018-Nov-17 09:01:39 1006.600 8.8 93 7.8     0.51 10.87 128.98
2018-Nov-17 10:01:40 1006.600 9.3 94 8.4       10.87 128.98
2018-Nov-17 11:01:49 1006.600 9.8 93 8.7       10.87 128.98
2018-Nov-17 12:02:04 1006.300 9.6 93 8.5     0.51 11.39 129.50
2018-Nov-17 13:01:46 1005.700 10.3 93 9.2       11.39 129.50
2018-Nov-17 14:01:44 1005.000 10.9 93 9.8       10.87 129.50
2018-Nov-17 15:01:39 1004.600 11.8 91 10.4       9.84 129.50
2018-Nov-17 16:01:48 1004.300 11.9 88 10.0       7.77 129.50
2018-Nov-17 17:02:04 1003.900 11.4 86 9.1       7.77 129.50
2018-Nov-17 18:01:33 1003.700 10.4 86 8.1       6.73 129.50
2018-Nov-17 19:01:53 1004.100 9.9 87 7.8       6.73 129.50
2018-Nov-17 20:01:37 1004.000 9.8 88 7.9       6.21 129.50
2018-Nov-17 21:01:42 1003.800 9.3 89 7.6       5.69 129.50
2018-Nov-17 22:01:45 1003.100 9.2 89 7.5       5.18 129.50
2018-Nov-17 23:01:35 1002.900 8.9 90 7.4     0.51 5.18 130.01

Temperatura Máxima:11°    Temperatura Mínima:
Presión Máxima:1007.400 Hpa    Presión Mínima:1002.900 Hpa


Volver